sensor_id;sensor_type;location;lat;lon;timestamp;pressure;altitude;pressure_sealevel;temperature;humidity
52935;BME280;38802;50.198;19.796;2022-07-06T00:00:30;96305.72;;;14.92;89.23
52935;BME280;38802;50.198;19.796;2022-07-06T00:03:04;96306.50;;;14.91;89.56
52935;BME280;38802;50.198;19.796;2022-07-06T00:05:32;96305.35;;;14.90;89.35
52935;BME280;38802;50.198;19.796;2022-07-06T00:08:00;96305.55;;;14.90;89.40
52935;BME280;38802;50.198;19.796;2022-07-06T00:10:28;96303.48;;;14.91;89.23
52935;BME280;38802;50.198;19.796;2022-07-06T00:12:56;96304.22;;;14.93;89.15
52935;BME280;38802;50.198;19.796;2022-07-06T00:15:24;96304.95;;;14.93;89.38
52935;BME280;38802;50.198;19.796;2022-07-06T00:17:52;96299.14;;;14.93;89.17
52935;BME280;38802;50.198;19.796;2022-07-06T00:20:21;96298.18;;;14.92;89.31
52935;BME280;38802;50.198;19.796;2022-07-06T00:22:49;96297.45;;;14.92;89.30
52935;BME280;38802;50.198;19.796;2022-07-06T00:25:18;96294.77;;;14.93;89.35
52935;BME280;38802;50.198;19.796;2022-07-06T00:27:46;96290.35;;;14.93;89.40
52935;BME280;38802;50.198;19.796;2022-07-06T00:30:15;96291.55;;;14.93;89.69
52935;BME280;38802;50.198;19.796;2022-07-06T00:32:43;96290.42;;;14.94;89.50
52935;BME280;38802;50.198;19.796;2022-07-06T00:35:11;96290.15;;;14.93;89.52
52935;BME280;38802;50.198;19.796;2022-07-06T00:37:39;96290.09;;;14.94;89.30
52935;BME280;38802;50.198;19.796;2022-07-06T00:40:08;96283.41;;;14.94;89.45
52935;BME280;38802;50.198;19.796;2022-07-06T00:42:44;96284.95;;;14.95;89.61
52935;BME280;38802;50.198;19.796;2022-07-06T00:45:12;96290.94;;;14.92;89.34
52935;BME280;38802;50.198;19.796;2022-07-06T00:47:41;96288.36;;;14.91;89.57
52935;BME280;38802;50.198;19.796;2022-07-06T00:50:12;96287.48;;;14.91;89.26
52935;BME280;38802;50.198;19.796;2022-07-06T00:55:25;96281.31;;;14.91;89.67
52935;BME280;38802;50.198;19.796;2022-07-06T00:57:55;96278.63;;;14.92;89.48
52935;BME280;38802;50.198;19.796;2022-07-06T01:00:25;96275.09;;;14.92;89.40
52935;BME280;38802;50.198;19.796;2022-07-06T01:02:54;96275.75;;;14.92;89.43
52935;BME280;38802;50.198;19.796;2022-07-06T01:05:24;96273.73;;;14.93;89.29
52935;BME280;38802;50.198;19.796;2022-07-06T01:07:52;96271.20;;;14.94;89.92
52935;BME280;38802;50.198;19.796;2022-07-06T01:10:21;96269.81;;;14.92;90.04
52935;BME280;38802;50.198;19.796;2022-07-06T01:12:50;96274.42;;;14.92;89.64
52935;BME280;38802;50.198;19.796;2022-07-06T01:15:21;96272.91;;;14.91;89.68
52935;BME280;38802;50.198;19.796;2022-07-06T01:17:50;96277.41;;;14.92;89.81
52935;BME280;38802;50.198;19.796;2022-07-06T01:20:21;96278.27;;;14.92;89.87
52935;BME280;38802;50.198;19.796;2022-07-06T01:22:53;96281.80;;;14.91;90.11
52935;BME280;38802;50.198;19.796;2022-07-06T01:25:21;96281.59;;;14.88;89.72
52935;BME280;38802;50.198;19.796;2022-07-06T01:27:49;96287.34;;;14.87;90.18
52935;BME280;38802;50.198;19.796;2022-07-06T01:30:19;96292.52;;;14.86;89.67
52935;BME280;38802;50.198;19.796;2022-07-06T01:32:47;96293.27;;;14.85;90.06
52935;BME280;38802;50.198;19.796;2022-07-06T01:35:16;96288.94;;;14.85;89.94
52935;BME280;38802;50.198;19.796;2022-07-06T01:37:44;96288.30;;;14.84;90.06
52935;BME280;38802;50.198;19.796;2022-07-06T01:40:14;96286.70;;;14.83;90.10
52935;BME280;38802;50.198;19.796;2022-07-06T01:42:43;96286.20;;;14.82;90.21
52935;BME280;38802;50.198;19.796;2022-07-06T01:45:11;96293.77;;;14.82;90.06
52935;BME280;38802;50.198;19.796;2022-07-06T01:47:41;96295.09;;;14.83;89.97
52935;BME280;38802;50.198;19.796;2022-07-06T01:50:09;96298.16;;;14.83;90.16
52935;BME280;38802;50.198;19.796;2022-07-06T01:52:41;96298.99;;;14.84;90.13
52935;BME280;38802;50.198;19.796;2022-07-06T01:55:10;96298.60;;;14.84;90.08
52935;BME280;38802;50.198;19.796;2022-07-06T01:57:38;96299.08;;;14.85;90.38
52935;BME280;38802;50.198;19.796;2022-07-06T02:00:10;96304.48;;;14.85;90.44
52935;BME280;38802;50.198;19.796;2022-07-06T02:02:44;96303.86;;;14.86;90.43
52935;BME280;38802;50.198;19.796;2022-07-06T02:05:12;96302.02;;;14.87;90.50
52935;BME280;38802;50.198;19.796;2022-07-06T02:07:40;96300.02;;;14.88;90.49
52935;BME280;38802;50.198;19.796;2022-07-06T02:10:10;96295.59;;;14.88;90.41
52935;BME280;38802;50.198;19.796;2022-07-06T02:12:38;96292.02;;;14.89;90.49
52935;BME280;38802;50.198;19.796;2022-07-06T02:15:06;96289.23;;;14.89;90.72
52935;BME280;38802;50.198;19.796;2022-07-06T02:17:35;96288.38;;;14.89;90.64
52935;BME280;38802;50.198;19.796;2022-07-06T02:20:05;96291.78;;;14.88;90.48
52935;BME280;38802;50.198;19.796;2022-07-06T02:22:33;96288.66;;;14.87;90.57
52935;BME280;38802;50.198;19.796;2022-07-06T02:25:02;96288.50;;;14.87;90.85
52935;BME280;38802;50.198;19.796;2022-07-06T02:27:31;96292.92;;;14.87;90.92
52935;BME280;38802;50.198;19.796;2022-07-06T02:30:01;96293.52;;;14.86;90.73
52935;BME280;38802;50.198;19.796;2022-07-06T02:32:31;96296.22;;;14.85;90.80
52935;BME280;38802;50.198;19.796;2022-07-06T02:35:00;96293.58;;;14.86;90.85
52935;BME280;38802;50.198;19.796;2022-07-06T02:37:28;96292.52;;;14.86;91.16
52935;BME280;38802;50.198;19.796;2022-07-06T02:39:56;96294.85;;;14.85;90.98
52935;BME280;38802;50.198;19.796;2022-07-06T02:42:26;96294.09;;;14.86;90.62
52935;BME280;38802;50.198;19.796;2022-07-06T02:44:55;96293.23;;;14.86;90.83
52935;BME280;38802;50.198;19.796;2022-07-06T02:47:23;96291.88;;;14.87;90.61
52935;BME280;38802;50.198;19.796;2022-07-06T02:49:52;96294.42;;;14.86;90.68
52935;BME280;38802;50.198;19.796;2022-07-06T02:52:22;96295.89;;;14.85;90.90
52935;BME280;38802;50.198;19.796;2022-07-06T02:54:51;96296.73;;;14.86;90.96
52935;BME280;38802;50.198;19.796;2022-07-06T02:57:19;96300.31;;;14.85;90.73
52935;BME280;38802;50.198;19.796;2022-07-06T02:59:48;96301.03;;;14.84;91.09
52935;BME280;38802;50.198;19.796;2022-07-06T03:02:18;96305.39;;;14.83;91.03
52935;BME280;38802;50.198;19.796;2022-07-06T03:04:46;96301.67;;;14.82;90.92
52935;BME280;38802;50.198;19.796;2022-07-06T03:07:15;96305.98;;;14.81;90.95
52935;BME280;38802;50.198;19.796;2022-07-06T03:09:45;96314.27;;;14.80;90.98
52935;BME280;38802;50.198;19.796;2022-07-06T03:12:13;96311.55;;;14.79;90.83
52935;BME280;38802;50.198;19.796;2022-07-06T03:14:42;96315.25;;;14.79;91.19
52935;BME280;38802;50.198;19.796;2022-07-06T03:17:10;96313.70;;;14.77;90.72
52935;BME280;38802;50.198;19.796;2022-07-06T03:19:39;96312.70;;;14.74;91.02
52935;BME280;38802;50.198;19.796;2022-07-06T03:22:09;96312.43;;;14.71;90.69
52935;BME280;38802;50.198;19.796;2022-07-06T03:24:37;96310.77;;;14.69;90.84
52935;BME280;38802;50.198;19.796;2022-07-06T03:27:06;96308.09;;;14.66;90.73
52935;BME280;38802;50.198;19.796;2022-07-06T03:29:34;96314.11;;;14.61;90.82
52935;BME280;38802;50.198;19.796;2022-07-06T03:32:03;96310.11;;;14.58;90.60
52935;BME280;38802;50.198;19.796;2022-07-06T03:34:32;96313.16;;;14.55;90.68
52935;BME280;38802;50.198;19.796;2022-07-06T03:37:00;96317.55;;;14.52;90.31
52935;BME280;38802;50.198;19.796;2022-07-06T03:39:29;96318.86;;;14.47;90.52
52935;BME280;38802;50.198;19.796;2022-07-06T03:41:58;96324.55;;;14.44;90.21
52935;BME280;38802;50.198;19.796;2022-07-06T03:44:26;96332.79;;;14.42;90.54
52935;BME280;38802;50.198;19.796;2022-07-06T03:46:55;96335.77;;;14.40;90.74
52935;BME280;38802;50.198;19.796;2022-07-06T03:49:24;96334.94;;;14.39;90.70
52935;BME280;38802;50.198;19.796;2022-07-06T03:51:55;96333.55;;;14.39;90.47
52935;BME280;38802;50.198;19.796;2022-07-06T03:54:24;96342.29;;;14.37;90.53
52935;BME280;38802;50.198;19.796;2022-07-06T03:56:57;96342.39;;;14.35;90.58
52935;BME280;38802;50.198;19.796;2022-07-06T03:59:26;96340.55;;;14.35;90.59
52935;BME280;38802;50.198;19.796;2022-07-06T04:01:57;96333.77;;;14.37;90.50
52935;BME280;38802;50.198;19.796;2022-07-06T04:04:26;96331.55;;;14.38;90.35
52935;BME280;38802;50.198;19.796;2022-07-06T04:06:55;96328.37;;;14.38;90.46
52935;BME280;38802;50.198;19.796;2022-07-06T04:09:24;96327.55;;;14.36;90.46
52935;BME280;38802;50.198;19.796;2022-07-06T04:11:53;96327.93;;;14.34;90.44
52935;BME280;38802;50.198;19.796;2022-07-06T04:14:21;96329.61;;;14.35;90.50
52935;BME280;38802;50.198;19.796;2022-07-06T04:16:49;96330.30;;;14.35;90.29
52935;BME280;38802;50.198;19.796;2022-07-06T04:19:19;96332.39;;;14.35;90.70
52935;BME280;38802;50.198;19.796;2022-07-06T04:21:47;96341.02;;;14.34;90.52
52935;BME280;38802;50.198;19.796;2022-07-06T04:24:15;96341.13;;;14.33;90.27
52935;BME280;38802;50.198;19.796;2022-07-06T04:26:44;96343.08;;;14.35;90.35
52935;BME280;38802;50.198;19.796;2022-07-06T04:29:12;96353.11;;;14.36;90.15
52935;BME280;38802;50.198;19.796;2022-07-06T04:31:40;96358.08;;;14.37;90.67
52935;BME280;38802;50.198;19.796;2022-07-06T04:34:08;96359.65;;;14.37;90.15
52935;BME280;38802;50.198;19.796;2022-07-06T04:36:37;96364.12;;;14.38;90.05
52935;BME280;38802;50.198;19.796;2022-07-06T04:39:06;96362.65;;;14.38;90.17
52935;BME280;38802;50.198;19.796;2022-07-06T04:41:34;96363.41;;;14.41;90.38
52935;BME280;38802;50.198;19.796;2022-07-06T04:44:02;96364.19;;;14.44;90.04
52935;BME280;38802;50.198;19.796;2022-07-06T04:46:30;96366.52;;;14.48;90.26
52935;BME280;38802;50.198;19.796;2022-07-06T04:49:00;96364.45;;;14.53;90.18
52935;BME280;38802;50.198;19.796;2022-07-06T04:51:30;96368.23;;;14.55;90.04
52935;BME280;38802;50.198;19.796;2022-07-06T04:53:58;96372.57;;;14.55;89.92
52935;BME280;38802;50.198;19.796;2022-07-06T04:56:28;96384.67;;;14.53;89.88
52935;BME280;38802;50.198;19.796;2022-07-06T04:58:57;96389.89;;;14.54;89.66
52935;BME280;38802;50.198;19.796;2022-07-06T05:01:25;96388.75;;;14.55;90.08
52935;BME280;38802;50.198;19.796;2022-07-06T05:03:55;96390.96;;;14.53;90.17
52935;BME280;38802;50.198;19.796;2022-07-06T05:06:24;96386.48;;;14.56;89.93
52935;BME280;38802;50.198;19.796;2022-07-06T05:08:52;96383.17;;;14.60;89.74
52935;BME280;38802;50.198;19.796;2022-07-06T05:11:21;96377.05;;;14.61;89.81
52935;BME280;38802;50.198;19.796;2022-07-06T05:13:50;96378.84;;;14.63;89.84
52935;BME280;38802;50.198;19.796;2022-07-06T05:16:19;96385.23;;;14.69;89.96
52935;BME280;38802;50.198;19.796;2022-07-06T05:18:47;96388.82;;;14.77;90.02
52935;BME280;38802;50.198;19.796;2022-07-06T05:21:16;96385.22;;;14.88;90.10
52935;BME280;38802;50.198;19.796;2022-07-06T05:23:44;96383.45;;;14.98;90.26
52935;BME280;38802;50.198;19.796;2022-07-06T05:26:13;96381.89;;;15.11;90.09
52935;BME280;38802;50.198;19.796;2022-07-06T05:28:42;96388.34;;;15.16;89.84
52935;BME280;38802;50.198;19.796;2022-07-06T05:31:12;96394.80;;;15.18;89.26
52935;BME280;38802;50.198;19.796;2022-07-06T05:33:41;96397.73;;;15.17;89.28
52935;BME280;38802;50.198;19.796;2022-07-06T05:36:10;96399.52;;;15.14;89.34
52935;BME280;38802;50.198;19.796;2022-07-06T05:38:38;96402.46;;;15.11;89.16
52935;BME280;38802;50.198;19.796;2022-07-06T05:41:07;96397.86;;;15.23;89.49
52935;BME280;38802;50.198;19.796;2022-07-06T05:43:36;96402.80;;;15.52;89.85
52935;BME280;38802;50.198;19.796;2022-07-06T05:46:05;96400.70;;;15.82;89.95
52935;BME280;38802;50.198;19.796;2022-07-06T05:48:34;96407.20;;;16.15;90.07
52935;BME280;38802;50.198;19.796;2022-07-06T05:51:22;96412.63;;;16.42;89.59
52935;BME280;38802;50.198;19.796;2022-07-06T05:53:52;96411.38;;;16.49;89.05
52935;BME280;38802;50.198;19.796;2022-07-06T05:56:20;96412.11;;;16.51;88.54
52935;BME280;38802;50.198;19.796;2022-07-06T05:58:49;96414.94;;;16.49;88.49
52935;BME280;38802;50.198;19.796;2022-07-06T06:01:17;96419.48;;;16.44;87.98
52935;BME280;38802;50.198;19.796;2022-07-06T06:03:50;96418.70;;;16.38;87.70
52935;BME280;38802;50.198;19.796;2022-07-06T06:06:19;96420.78;;;16.34;87.76
52935;BME280;38802;50.198;19.796;2022-07-06T06:08:48;96416.60;;;16.33;87.75
52935;BME280;38802;50.198;19.796;2022-07-06T06:11:16;96415.88;;;16.31;87.76
52935;BME280;38802;50.198;19.796;2022-07-06T06:13:44;96412.81;;;16.44;88.06
52935;BME280;38802;50.198;19.796;2022-07-06T06:16:14;96409.65;;;16.78;88.73
52935;BME280;38802;50.198;19.796;2022-07-06T06:18:44;96402.64;;;17.16;88.61
52935;BME280;38802;50.198;19.796;2022-07-06T06:21:12;96394.17;;;17.46;88.40
52935;BME280;38802;50.198;19.796;2022-07-06T06:23:40;96397.02;;;17.54;87.48
52935;BME280;38802;50.198;19.796;2022-07-06T06:26:08;96402.78;;;17.46;86.54
52935;BME280;38802;50.198;19.796;2022-07-06T06:28:36;96403.98;;;17.32;86.26
52935;BME280;38802;50.198;19.796;2022-07-06T06:31:05;96406.34;;;17.21;86.23
52935;BME280;38802;50.198;19.796;2022-07-06T06:33:33;96412.54;;;17.15;86.01
52935;BME280;38802;50.198;19.796;2022-07-06T06:36:02;96412.45;;;17.20;86.52
52935;BME280;38802;50.198;19.796;2022-07-06T06:38:30;96409.76;;;17.23;86.34
52935;BME280;38802;50.198;19.796;2022-07-06T06:41:00;96406.36;;;17.25;86.12
52935;BME280;38802;50.198;19.796;2022-07-06T06:43:29;96408.02;;;17.31;86.18
52935;BME280;38802;50.198;19.796;2022-07-06T06:46:08;96405.44;;;17.55;86.59
52935;BME280;38802;50.198;19.796;2022-07-06T06:48:37;96401.44;;;17.72;85.95
52935;BME280;38802;50.198;19.796;2022-07-06T06:51:05;96405.38;;;17.78;85.22
52935;BME280;38802;50.198;19.796;2022-07-06T06:53:33;96405.67;;;17.96;85.69
52935;BME280;38802;50.198;19.796;2022-07-06T06:56:06;96398.87;;;18.22;85.75
52935;BME280;38802;50.198;19.796;2022-07-06T06:58:34;96403.83;;;18.47;85.61
52935;BME280;38802;50.198;19.796;2022-07-06T07:01:23;96403.86;;;18.48;84.65
52935;BME280;38802;50.198;19.796;2022-07-06T07:03:51;96408.55;;;18.54;84.15
52935;BME280;38802;50.198;19.796;2022-07-06T07:06:20;96406.74;;;18.78;84.19
52935;BME280;38802;50.198;19.796;2022-07-06T07:08:48;96407.05;;;18.81;81.41
52935;BME280;38802;50.198;19.796;2022-07-06T07:11:17;96408.86;;;18.76;81.85
52935;BME280;38802;50.198;19.796;2022-07-06T07:13:45;96409.45;;;18.85;81.68
52935;BME280;38802;50.198;19.796;2022-07-06T07:16:13;96407.20;;;19.02;81.88
52935;BME280;38802;50.198;19.796;2022-07-06T07:18:42;96405.88;;;19.21;81.16
52935;BME280;38802;50.198;19.796;2022-07-06T07:21:10;96403.55;;;19.40;80.91
52935;BME280;38802;50.198;19.796;2022-07-06T07:23:38;96403.33;;;19.57;80.24
52935;BME280;38802;50.198;19.796;2022-07-06T07:26:06;96404.50;;;19.65;80.46
52935;BME280;38802;50.198;19.796;2022-07-06T07:28:40;96409.84;;;19.51;79.93
52935;BME280;38802;50.198;19.796;2022-07-06T07:31:11;96410.64;;;19.33;79.47
52935;BME280;38802;50.198;19.796;2022-07-06T07:33:39;96410.75;;;19.23;79.86
52935;BME280;38802;50.198;19.796;2022-07-06T07:36:08;96414.70;;;19.35;80.36
52935;BME280;38802;50.198;19.796;2022-07-06T07:38:36;96416.00;;;19.60;80.07
52935;BME280;38802;50.198;19.796;2022-07-06T07:41:05;96423.20;;;19.80;79.75
52935;BME280;38802;50.198;19.796;2022-07-06T07:43:34;96424.58;;;19.93;79.70
52935;BME280;38802;50.198;19.796;2022-07-06T07:46:02;96429.59;;;19.91;78.60
52935;BME280;38802;50.198;19.796;2022-07-06T07:48:31;96434.93;;;19.77;77.98
52935;BME280;38802;50.198;19.796;2022-07-06T07:50:59;96437.50;;;19.71;78.28
52935;BME280;38802;50.198;19.796;2022-07-06T07:53:28;96442.08;;;19.65;78.13
52935;BME280;38802;50.198;19.796;2022-07-06T07:55:56;96443.80;;;19.55;78.09
52935;BME280;38802;50.198;19.796;2022-07-06T07:58:24;96436.02;;;19.47;77.93
52935;BME280;38802;50.198;19.796;2022-07-06T08:00:54;96435.05;;;19.66;78.02
52935;BME280;38802;50.198;19.796;2022-07-06T08:03:23;96435.20;;;19.88;77.63
52935;BME280;38802;50.198;19.796;2022-07-06T08:05:51;96442.77;;;19.83;76.78
52935;BME280;38802;50.198;19.796;2022-07-06T08:08:20;96438.72;;;19.74;76.70
52935;BME280;38802;50.198;19.796;2022-07-06T08:10:49;96432.67;;;19.63;76.78
52935;BME280;38802;50.198;19.796;2022-07-06T08:13:38;96436.58;;;19.55;76.51
52935;BME280;38802;50.198;19.796;2022-07-06T08:16:06;96440.30;;;19.48;75.34
52935;BME280;38802;50.198;19.796;2022-07-06T08:18:34;96447.26;;;19.40;76.06
52935;BME280;38802;50.198;19.796;2022-07-06T08:21:04;96453.42;;;19.23;75.65
52935;BME280;38802;50.198;19.796;2022-07-06T08:23:53;96460.50;;;18.98;75.46
52935;BME280;38802;50.198;19.796;2022-07-06T08:26:22;96461.73;;;18.76;75.46
52935;BME280;38802;50.198;19.796;2022-07-06T08:28:50;96462.52;;;18.56;75.68
52935;BME280;38802;50.198;19.796;2022-07-06T08:31:19;96470.59;;;18.37;75.85
52935;BME280;38802;50.198;19.796;2022-07-06T08:34:07;96473.25;;;18.09;76.20
52935;BME280;38802;50.198;19.796;2022-07-06T08:36:36;96480.30;;;17.90;76.20
52935;BME280;38802;50.198;19.796;2022-07-06T08:39:04;96483.39;;;17.63;76.51
52935;BME280;38802;50.198;19.796;2022-07-06T08:41:32;96484.73;;;17.40;76.64
52935;BME280;38802;50.198;19.796;2022-07-06T08:44:00;96484.45;;;17.23;76.88
52935;BME280;38802;50.198;19.796;2022-07-06T08:46:29;96480.93;;;17.09;77.34
52935;BME280;38802;50.198;19.796;2022-07-06T08:48:58;96482.59;;;17.01;77.62
52935;BME280;38802;50.198;19.796;2022-07-06T08:51:28;96477.73;;;16.93;77.73
52935;BME280;38802;50.198;19.796;2022-07-06T08:53:57;96476.17;;;16.89;78.15
52935;BME280;38802;50.198;19.796;2022-07-06T08:56:27;96478.60;;;16.84;78.22
52935;BME280;38802;50.198;19.796;2022-07-06T08:58:55;96478.52;;;16.82;78.65
52935;BME280;38802;50.198;19.796;2022-07-06T09:01:24;96481.52;;;16.84;78.65
52935;BME280;38802;50.198;19.796;2022-07-06T09:03:54;96484.28;;;16.96;78.96
52935;BME280;38802;50.198;19.796;2022-07-06T09:06:24;96482.45;;;17.13;79.33
52935;BME280;38802;50.198;19.796;2022-07-06T09:08:54;96482.63;;;17.30;79.53
52935;BME280;38802;50.198;19.796;2022-07-06T09:11:24;96476.25;;;17.54;79.75
52935;BME280;38802;50.198;19.796;2022-07-06T09:13:57;96473.84;;;17.78;79.28
52935;BME280;38802;50.198;19.796;2022-07-06T09:16:28;96475.72;;;17.95;79.38
52935;BME280;38802;50.198;19.796;2022-07-06T09:19:07;96478.10;;;18.15;79.40
52935;BME280;38802;50.198;19.796;2022-07-06T09:21:38;96478.68;;;18.32;79.12
52935;BME280;38802;50.198;19.796;2022-07-06T09:24:09;96481.38;;;18.38;79.16
52935;BME280;38802;50.198;19.796;2022-07-06T09:26:38;96478.95;;;18.46;78.91
52935;BME280;38802;50.198;19.796;2022-07-06T09:29:07;96482.96;;;18.33;78.50
52935;BME280;38802;50.198;19.796;2022-07-06T09:31:35;96484.73;;;18.12;78.38
52935;BME280;38802;50.198;19.796;2022-07-06T09:34:05;96490.88;;;17.95;78.34
52935;BME280;38802;50.198;19.796;2022-07-06T09:39:27;96481.86;;;17.77;78.64
52935;BME280;38802;50.198;19.796;2022-07-06T09:42:00;96478.92;;;17.78;78.71
52935;BME280;38802;50.198;19.796;2022-07-06T09:44:32;96475.73;;;17.82;78.90
52935;BME280;38802;50.198;19.796;2022-07-06T09:47:03;96473.29;;;17.85;78.62
52935;BME280;38802;50.198;19.796;2022-07-06T09:49:32;96474.51;;;17.90;78.54
52935;BME280;38802;50.198;19.796;2022-07-06T09:52:03;96472.65;;;17.98;78.43
52935;BME280;38802;50.198;19.796;2022-07-06T09:54:33;96465.94;;;18.06;78.54
52935;BME280;38802;50.198;19.796;2022-07-06T09:57:07;96460.00;;;18.13;78.42
52935;BME280;38802;50.198;19.796;2022-07-06T09:59:37;96458.73;;;18.18;78.28
52935;BME280;38802;50.198;19.796;2022-07-06T10:02:07;96455.98;;;18.25;78.42
52935;BME280;38802;50.198;19.796;2022-07-06T10:04:36;96458.53;;;18.30;78.01
52935;BME280;38802;50.198;19.796;2022-07-06T10:07:06;96456.66;;;18.29;77.65
52935;BME280;38802;50.198;19.796;2022-07-06T10:09:35;96453.79;;;18.32;77.52
52935;BME280;38802;50.198;19.796;2022-07-06T10:12:05;96446.55;;;18.44;77.63
52935;BME280;38802;50.198;19.796;2022-07-06T10:14:36;96439.55;;;18.68;77.89
52935;BME280;38802;50.198;19.796;2022-07-06T10:17:07;96435.09;;;18.92;77.36
52935;BME280;38802;50.198;19.796;2022-07-06T10:19:36;96436.31;;;19.12;76.69
52935;BME280;38802;50.198;19.796;2022-07-06T10:22:07;96438.65;;;19.24;76.65
52935;BME280;38802;50.198;19.796;2022-07-06T10:24:36;96443.61;;;19.29;75.40
52935;BME280;38802;50.198;19.796;2022-07-06T10:27:12;96447.02;;;19.27;75.69
52935;BME280;38802;50.198;19.796;2022-07-06T10:29:42;96444.44;;;19.27;74.81
52935;BME280;38802;50.198;19.796;2022-07-06T10:32:10;96443.66;;;19.40;75.07
52935;BME280;38802;50.198;19.796;2022-07-06T10:34:39;96445.16;;;19.60;75.63
52935;BME280;38802;50.198;19.796;2022-07-06T10:37:29;96444.40;;;19.78;75.52
52935;BME280;38802;50.198;19.796;2022-07-06T10:39:58;96444.73;;;20.00;75.13
52935;BME280;38802;50.198;19.796;2022-07-06T10:42:50;96439.80;;;20.13;74.58
52935;BME280;38802;50.198;19.796;2022-07-06T10:50:42;96442.78;;;20.37;73.94
52935;BME280;38802;50.198;19.796;2022-07-06T10:53:14;96442.70;;;20.50;73.29
52935;BME280;38802;50.198;19.796;2022-07-06T10:55:45;96440.49;;;20.64;72.84
52935;BME280;38802;50.198;19.796;2022-07-06T11:01:09;96442.75;;;20.69;71.41
52935;BME280;38802;50.198;19.796;2022-07-06T11:04:03;96443.96;;;20.62;71.27
52935;BME280;38802;50.198;19.796;2022-07-06T11:06:36;96444.54;;;20.52;70.96
52935;BME280;38802;50.198;19.796;2022-07-06T11:09:07;96446.08;;;20.39;70.81
52935;BME280;38802;50.198;19.796;2022-07-06T11:14:07;96452.14;;;20.30;70.70
52935;BME280;38802;50.198;19.796;2022-07-06T11:16:38;96450.95;;;20.26;70.07
52935;BME280;38802;50.198;19.796;2022-07-06T11:19:10;96451.98;;;20.22;69.11
52935;BME280;38802;50.198;19.796;2022-07-06T11:21:56;96452.88;;;20.19;69.66
52935;BME280;38802;50.198;19.796;2022-07-06T11:24:30;96455.88;;;20.23;69.83
52935;BME280;38802;50.198;19.796;2022-07-06T11:27:00;96455.88;;;20.38;69.57
52935;BME280;38802;50.198;19.796;2022-07-06T11:29:29;96457.66;;;20.59;69.98
52935;BME280;38802;50.198;19.796;2022-07-06T11:32:00;96458.55;;;20.78;69.21
52935;BME280;38802;50.198;19.796;2022-07-06T11:34:33;96454.30;;;20.84;69.00
52935;BME280;38802;50.198;19.796;2022-07-06T11:37:13;96460.27;;;20.83;68.49
52935;BME280;38802;50.198;19.796;2022-07-06T11:39:43;96461.73;;;20.78;68.82
52935;BME280;38802;50.198;19.796;2022-07-06T11:42:14;96463.52;;;20.74;68.87
52935;BME280;38802;50.198;19.796;2022-07-06T11:44:44;96463.44;;;20.71;69.13
52935;BME280;38802;50.198;19.796;2022-07-06T11:47:13;96462.78;;;20.71;68.55
52935;BME280;38802;50.198;19.796;2022-07-06T11:49:50;96460.17;;;20.62;68.17
52935;BME280;38802;50.198;19.796;2022-07-06T11:52:19;96462.92;;;20.54;68.19
52935;BME280;38802;50.198;19.796;2022-07-06T11:54:48;96459.02;;;20.49;68.44
52935;BME280;38802;50.198;19.796;2022-07-06T11:57:16;96461.02;;;20.49;68.16
52935;BME280;38802;50.198;19.796;2022-07-06T11:59:44;96461.08;;;20.47;67.97
52935;BME280;38802;50.198;19.796;2022-07-06T12:02:15;96462.41;;;20.46;67.60
52935;BME280;38802;50.198;19.796;2022-07-06T12:04:45;96461.95;;;20.43;67.28
52935;BME280;38802;50.198;19.796;2022-07-06T12:07:16;96464.41;;;20.42;67.41
52935;BME280;38802;50.198;19.796;2022-07-06T12:09:45;96465.90;;;20.39;66.91
52935;BME280;38802;50.198;19.796;2022-07-06T12:12:14;96466.10;;;20.35;66.13
52935;BME280;38802;50.198;19.796;2022-07-06T12:14:44;96463.33;;;20.26;65.60
52935;BME280;38802;50.198;19.796;2022-07-06T12:17:14;96466.05;;;20.18;65.55
52935;BME280;38802;50.198;19.796;2022-07-06T12:19:43;96463.91;;;20.17;65.11
52935;BME280;38802;50.198;19.796;2022-07-06T12:22:12;96462.70;;;20.18;64.90
52935;BME280;38802;50.198;19.796;2022-07-06T12:24:43;96464.34;;;20.20;65.13
52935;BME280;38802;50.198;19.796;2022-07-06T12:27:17;96458.65;;;20.21;65.19
52935;BME280;38802;50.198;19.796;2022-07-06T12:29:47;96459.73;;;20.21;65.18
52935;BME280;38802;50.198;19.796;2022-07-06T12:32:16;96455.20;;;20.22;64.66
52935;BME280;38802;50.198;19.796;2022-07-06T12:34:44;96455.16;;;20.19;63.90
52935;BME280;38802;50.198;19.796;2022-07-06T12:37:13;96454.65;;;20.17;63.83
52935;BME280;38802;50.198;19.796;2022-07-06T12:39:46;96458.08;;;20.15;63.70
52935;BME280;38802;50.198;19.796;2022-07-06T12:42:16;96456.04;;;20.10;63.66
52935;BME280;38802;50.198;19.796;2022-07-06T12:44:49;96459.05;;;20.04;63.71
52935;BME280;38802;50.198;19.796;2022-07-06T12:47:19;96457.77;;;19.94;63.74
52935;BME280;38802;50.198;19.796;2022-07-06T12:50:07;96458.02;;;19.90;63.50
52935;BME280;38802;50.198;19.796;2022-07-06T12:52:37;96457.84;;;19.95;63.58
52935;BME280;38802;50.198;19.796;2022-07-06T12:55:07;96460.98;;;20.01;63.33
52935;BME280;38802;50.198;19.796;2022-07-06T12:57:46;96457.96;;;20.11;63.87
52935;BME280;38802;50.198;19.796;2022-07-06T13:00:16;96457.08;;;20.22;63.59
52935;BME280;38802;50.198;19.796;2022-07-06T13:02:47;96457.32;;;20.24;63.17
52935;BME280;38802;50.198;19.796;2022-07-06T13:05:36;96459.15;;;20.20;63.15
52935;BME280;38802;50.198;19.796;2022-07-06T13:08:07;96468.25;;;20.13;63.38
52935;BME280;38802;50.198;19.796;2022-07-06T13:10:37;96473.52;;;20.01;63.17
52935;BME280;38802;50.198;19.796;2022-07-06T13:13:08;96476.67;;;19.91;63.17
52935;BME280;38802;50.198;19.796;2022-07-06T13:15:36;96479.50;;;19.83;63.38
52935;BME280;38802;50.198;19.796;2022-07-06T13:18:04;96480.76;;;19.75;62.98
52935;BME280;38802;50.198;19.796;2022-07-06T13:20:40;96479.08;;;19.70;63.00